Skip to main content

NOAA/GLERL Met Station at Muskegon, MI

Previous 5 days (top of hour only)
See also Previous 3 Hours (2 minute increments)
Jump down to Data
Switch to [English][Metric]
Zoom: Click and drag, Pan: shift-click and drag, Unzoom: double-click, Unzoom All






Note: Speed = mean wind during 2-minute period at top of hour,
Gust = max wind during 2-minute period at top of hour,
Peak = max wind during entire hour.
• See also 5-day windrose plot


NOAA/GLERL Met Station at Muskegon, MI

Previous 5 days (top of hour only)
See also Previous 3 Hours (2 minute increments)
Jump up to Graphs
Switch to [English][Metric]
                  Wind  Wind  Wind   Air   Dew   Rel     Sta   PAR
                   Spd   Gst   Dir  Temp    Pt   Hum    Pres uE/m2/
YYYY-MM-DD   EDT   kts   kts   deg     F     F     %   in Hg   sec
2019-08-25 00:00 -99.0 -99.0   -99   0.0   0.0   0.0    0.00     0
2019-08-24 17:00  11.1  13.2   340  71.4  57.9  61.8   29.61  1823
2019-08-24 16:00   6.8   9.3    69  75.0  49.8  40.5   29.62  1866
2019-08-24 15:00   4.7   6.0    89  73.6  50.1  43.1   29.64  1900
2019-08-24 14:00   7.4  10.9    97  72.7  49.6  43.6   29.65  1902
2019-08-24 13:00   8.2  11.1    97  72.1  49.9  45.0   29.67  1888
2019-08-24 12:00   7.8  10.9    88  70.3  50.1  48.1   29.68  1843
2019-08-24 11:00   7.4  11.3   105  68.0  50.9  53.8   29.69  1763
2019-08-24 10:00   5.8   7.8   100  64.2  52.7  65.9   29.70  1592
2019-08-24 09:00   6.6   9.7    89  59.4  51.5  75.0   29.70  1313
2019-08-24 08:00   7.4   9.5   102  57.9  51.8  79.9   29.70   815
2019-08-24 07:00   8.0  10.1   112  57.6  50.6  77.2   29.68    15
2019-08-24 06:00   7.2  10.5   107  57.6  50.8  77.9   29.67     2
2019-08-24 05:00   9.7  13.4   111  58.3  50.8  75.8   29.66     2
2019-08-24 04:00   9.3  10.7   100  58.6  53.3  82.2   29.65     2
2019-08-24 03:00   8.0  11.5    94  59.4  53.1  79.4   29.64     2
2019-08-24 02:00   5.4   7.6    82  59.0  53.8  82.8   29.64     2
2019-08-24 01:00   6.8   8.2    78  59.7  53.3  79.1   29.63     2
2019-08-24 00:00   5.2   8.0    77  61.0  54.0  77.4   29.62     2
2019-08-23 23:00  10.9  13.2    41  62.8  54.7  74.5   29.61     2
2019-08-23 22:00  10.3  12.6    29  64.4  55.3  72.0   29.59     2
2019-08-23 21:00  10.7  14.4    19  65.8  56.1  70.5   29.57     2
2019-08-23 20:00   9.1  11.1     8  69.4  57.0  64.2   29.56   532
2019-08-23 19:00  16.5  18.9   351  69.3  58.3  67.7   29.57  1277
2019-08-23 18:00   6.8   9.3    58  73.6  46.2  37.1   29.57  1685
2019-08-23 17:00   8.6  11.1    69  73.9  48.9  40.6   29.56  1848
2019-08-23 16:00   8.7  12.1    65  72.3  49.0  43.2   29.57  1180
2019-08-23 15:00  10.9  13.2   338  70.0  55.2  59.0   29.58  2171
2019-08-23 14:00  15.7  16.7   341  68.0  56.4  66.0   29.59  2011
2019-08-23 13:00  15.4  16.5   333  67.8  53.8  60.4   29.59  1649
2019-08-23 12:00   9.5  10.7   336  67.6  53.2  59.5   29.60  1874
2019-08-23 11:00   1.7   3.7    53  68.2  51.8  55.3   29.60  1798
2019-08-23 10:00   3.7   5.6    70  63.7  52.0  65.4   29.59  1553
2019-08-23 09:00   5.2   7.2    80  61.0  51.1  69.7   29.58  1404
2019-08-23 08:00   5.8   7.6    97  55.9  49.5  78.7   29.56   690
2019-08-23 07:00   8.0   9.5    82  54.9  48.9  80.1   29.55    17
2019-08-23 06:00   6.4   8.7    68  55.8  48.8  77.1   29.54     2
2019-08-23 05:00   7.2   8.6    79  55.6  49.2  78.9   29.54     2
2019-08-23 04:00   4.9   7.0    83  57.2  49.5  75.2   29.52     2
2019-08-23 03:00   6.0   8.0    68  57.7  49.3  73.1   29.51     2
2019-08-23 02:00   8.0  10.1    55  59.2  48.8  68.1   29.50     2
2019-08-23 01:00   6.4   7.8    61  61.0  48.9  64.0   29.48     2
2019-08-23 00:00   9.5  11.3    50  63.1  48.5  58.5   29.47     2
2019-08-22 23:00  10.1  14.4    42  64.4  49.4  57.9   29.46     2
2019-08-22 22:00  10.1  12.4    38  64.8  49.4  57.0   29.45     2
2019-08-22 21:00   8.2  10.3    25  66.0  50.0  55.8   29.44     2
2019-08-22 20:00   5.6   7.0    19  68.0  51.7  55.4   29.43    80
2019-08-22 19:00   7.6  10.3    16  69.6  51.9  52.9   29.42   369
2019-08-22 18:00   9.5  12.1    11  73.2  50.5  44.2   29.41  1268
2019-08-22 17:00   8.9  11.1    55  73.6  51.0  44.6   29.41  1843
2019-08-22 16:00  15.7  21.0   358  72.7  57.3  57.9   29.42  2232
2019-08-22 15:00   6.2  12.1    22  72.9  54.9  52.8   29.41   852
2019-08-22 14:00  11.3  12.6   329  71.2  55.9  57.9   29.42  1958
2019-08-22 13:00   1.4   2.3    24  75.0  50.9  42.2   29.42  1914
2019-08-22 12:00   7.4  11.3    72  70.9  49.5  46.3   29.42  1898
2019-08-22 11:00   4.5   7.4    69  68.5  51.3  53.6   29.42  1273
2019-08-22 10:00   6.8  10.3    80  66.9  51.5  57.2   29.41  1655
2019-08-22 09:00  10.1  11.9    88  63.7  51.5  64.1   29.41  1413
2019-08-22 08:00   8.9  11.7    79  61.9  52.9  72.1   29.39   461
2019-08-22 07:00   8.9  10.9    73  62.4  52.9  70.7   29.39    18
2019-08-22 06:00   8.2  12.2    70  62.4  53.9  73.4   29.37     2
2019-08-22 05:00   7.8  10.9    68  64.0  55.0  72.0   29.35     2
2019-08-22 04:00   7.4   9.9    70  65.1  55.7  71.2   29.36     2
2019-08-22 03:00   8.2  10.9    65  64.6  57.4  77.3   29.36     2
2019-08-22 02:00   8.2  10.3    64  66.2  57.7  73.7   29.36     2
2019-08-22 01:00   3.1   3.3    11  66.7  60.4  79.7   29.35     2
2019-08-22 00:00   0.6   0.6   311  67.3  60.0  77.2   29.34     2
2019-08-21 23:00   5.4   5.6    41  67.6  61.1  79.2   29.32     2
2019-08-21 22:00   4.5   6.4    52  70.3  60.8  71.5   29.31     2
2019-08-21 21:00   5.2   6.2    35  71.4  61.5  70.6   29.28     2
2019-08-21 20:00   5.6   6.6    35  73.4  62.1  67.2   29.28   139
2019-08-21 19:00   5.4   6.8    37  76.8  62.2  60.0   29.28   572
2019-08-21 18:00   8.7  11.9   357  73.2  66.9  80.3   29.31  1024
2019-08-21 17:00   8.6   9.7   340  73.8  68.2  82.4   29.31  1740
2019-08-21 16:00  10.9  12.4   333  73.2  68.1  83.6   29.31  1278
2019-08-21 15:00  12.1  12.8   338  74.3  68.8  82.6   29.31  2020
2019-08-21 14:00   9.9  11.3   330  75.2  69.9  83.3   29.31  1909
2019-08-21 13:00   8.2   8.9   318  74.1  69.4  84.9   29.32  1602
2019-08-21 12:00   5.8   6.2   315  73.8  69.7  86.8   29.30  1902
2019-08-21 11:00   5.2   5.8   313  73.0  70.4  91.4   29.29  1785
2019-08-21 10:00   7.8   8.7   308  72.3  70.7  94.7   29.30  1508
2019-08-21 09:00   8.4   8.7   294  72.1  70.8  95.6   29.29  1038
2019-08-21 08:00   3.7   4.7   255  72.0  71.1  97.1   29.25   741
2019-08-21 07:00   1.6   2.1   238  71.2  70.7  98.3   29.26    25
2019-08-21 06:00   1.2   2.3   231  70.9  70.9  99.9   29.28     2
2019-08-21 05:00   6.0   6.6   272  71.8  71.4  98.6   29.28     2
2019-08-21 04:00  10.1  11.3   274  72.1  70.9  95.7   29.30     2
2019-08-21 03:00   7.8   8.7   272  72.0  70.3  94.4   29.31     2
2019-08-21 02:00   9.7  10.5   257  71.6  71.6  99.9   29.31     2
2019-08-21 01:00  11.5  12.2   242  71.6  71.6  99.9   29.32     2
2019-08-21 00:00   5.4   5.8   240  71.6  71.1  98.2   29.31     2
2019-08-20 23:00   2.3   2.5    67  72.5  69.8  91.1   29.29     2
2019-08-20 22:00   2.1   3.1    49  73.6  69.5  86.8   29.29     2
2019-08-20 21:00   3.3   3.9    34  74.3  69.5  84.6   29.28     2
2019-08-20 20:00   3.1   4.5     5  76.6  71.2  82.9   29.27   700
2019-08-20 19:00   2.3   2.9   324  74.1  72.2  93.6   29.27  1061
2019-08-20 18:00  12.2  12.8   261  72.5  72.5  99.9   29.31   492
2019-08-20 17:00   6.6   7.2   257  72.3  72.3  99.9   29.33   195
2019-08-20 16:00   7.2   7.8   207  74.1  72.1  93.3   29.34   574
2019-08-20 15:00   7.6   8.6   195  74.8  71.6  89.6   29.34   941
2019-08-20 14:00  11.1  12.4   189  76.5  71.3  83.7   29.33  1241
2019-08-20 13:00   5.1   6.2   183  77.0  71.0  81.3   29.37  1082
2019-08-20 12:00   4.7   7.0   123  75.7  68.1  76.8   29.36   929
2019-08-20 11:00   7.0   9.9   147  75.9  66.6  72.5   29.37   803
2019-08-20 10:00   8.2  10.7   113  74.3  62.5  66.1   29.36  1184
2019-08-20 09:00   6.6   9.1   103  71.4  62.5  73.0   29.37   987
2019-08-20 08:00   5.4   8.4    93  70.0  62.2  76.0   29.38   704
2019-08-20 07:00   7.6  10.5   104  67.8  62.8  83.7   29.36    18
2019-08-20 06:00   5.8   7.4    81  68.7  63.7  83.7   29.40     2
2019-08-20 05:00   7.8   9.5    94  69.3  63.6  82.0   29.41     2
2019-08-20 04:00   6.0   7.4    98  69.3  64.8  85.4   29.41     2
2019-08-20 03:00   6.8   8.2    96  69.6  65.1  85.3   29.40     2
2019-08-20 02:00   6.8   7.8    92  69.8  65.4  85.8   29.39     2
2019-08-20 01:00   5.4   6.2    97  69.3  65.9  88.8   29.39     2
2019-08-20 00:00   5.4   6.2    86  69.6  66.9  90.9   29.39     2
2019-08-19 23:00   4.9   5.4   100  70.2  66.8  88.8   29.39     2
2019-08-19 22:00   3.7   3.9    89  70.9  66.4  85.5   29.38     2
2019-08-19 21:00   4.1   4.5    38  71.8  67.0  84.6   29.37     4
2019-08-19 20:00   2.7   3.9    13  75.4  67.6  76.3   29.38   635